Time;durP1;ratioP1;P1;durP2;ratioP2;P2;SDS_P1;SDS_P2;PMS_P1;PMS_P2;Temp;Humidity;BMP_temperature;BMP_pressure;BME280_temperature;BME280_humidity;BME280_pressure;Samples;Min_cycle;Max_cycle;Signal;HPM_P1;HPM_P2
2023/03/01 00:01:34;;;;;;;21.43;15.30;;;2.10;99.90;;;;;;5094796;28;20135;-75
2023/03/01 00:04:00;;;;;;;21.30;14.70;;;2.00;99.90;;;;;;5094758;28;20055;-75
2023/03/01 00:06:26;;;;;;;23.97;15.13;;;2.00;99.90;;;;;;5095907;28;20052;-75
2023/03/01 00:08:53;;;;;;;18.95;14.68;;;1.90;99.90;;;;;;5096344;28;20048;-75
2023/03/01 00:11:22;;;;;;;21.92;14.88;;;1.90;99.90;;;;;;5095830;28;20040;-75
2023/03/01 00:13:52;;;;;;;20.55;14.77;;;1.90;99.90;;;;;;5095505;28;20515;-74
2023/03/01 00:16:27;;;;;;;19.30;15.55;;;1.90;99.90;;;;;;5095755;28;20043;-74
2023/03/01 00:18:57;;;;;;;20.70;14.63;;;1.90;99.90;;;;;;5095403;28;20051;-75
2023/03/01 00:21:23;;;;;;;19.67;15.02;;;1.90;99.90;;;;;;5095658;28;20036;-74
2023/03/01 00:23:50;;;;;;;23.60;15.25;;;1.90;99.90;;;;;;5095600;28;20047;-74
2023/03/01 00:26:17;;;;;;;22.88;15.20;;;1.80;99.90;;;;;;5096027;28;20044;-74
2023/03/01 00:28:43;;;;;;;19.58;16.05;;;1.90;99.90;;;;;;5095486;28;20404;-74
2023/03/01 00:31:12;;;;;;;20.95;15.68;;;1.90;99.90;;;;;;5094932;28;20380;-75
2023/03/01 00:33:38;;;;;;;22.50;16.67;;;1.90;99.90;;;;;;5095375;28;20048;-74
2023/03/01 00:36:04;;;;;;;18.17;14.73;;;1.90;99.90;;;;;;5077605;28;20361;-74
2023/03/01 00:38:30;;;;;;;22.27;16.30;;;1.90;99.90;;;;;;5095036;28;20525;-74
2023/03/01 00:41:06;;;;;;;22.85;16.45;;;1.90;99.90;;;;;;5095077;28;20040;-74
2023/03/01 00:43:36;;;;;;;22.10;16.05;;;1.80;99.90;;;;;;5095184;28;20107;-75
2023/03/01 00:46:22;;;;;;;22.38;16.08;;;1.90;99.90;;;;;;5095150;28;20052;-74
2023/03/01 00:48:49;;;;;;;22.98;17.17;;;1.80;99.90;;;;;;5093934;28;20055;-74
2023/03/01 00:51:20;;;;;;;21.83;16.58;;;1.80;99.90;;;;;;5094108;28;20044;-74
2023/03/01 00:53:47;;;;;;;21.15;15.95;;;1.70;99.90;;;;;;5093764;28;20108;-74
2023/03/01 00:56:14;;;;;;;23.95;16.67;;;1.70;99.90;;;;;;5094899;28;20209;-74
2023/03/01 00:58:40;;;;;;;21.67;15.90;;;1.70;99.90;;;;;;5094879;28;20044;-75
2023/03/01 01:01:18;;;;;;;21.17;16.23;;;1.70;99.90;;;;;;5094831;28;20126;-74
2023/03/01 01:03:49;;;;;;;20.70;15.75;;;1.80;99.90;;;;;;5095593;28;20632;-74
2023/03/01 01:06:20;;;;;;;22.55;15.75;;;1.80;99.90;;;;;;5094709;28;20044;-74
2023/03/01 01:08:46;;;;;;;22.08;16.42;;;1.80;99.90;;;;;;5094439;28;20480;-74
2023/03/01 01:11:12;;;;;;;22.67;17.30;;;1.70;99.90;;;;;;5094485;28;20066;-74
2023/03/01 01:13:39;;;;;;;23.25;16.48;;;1.70;99.90;;;;;;5095171;28;20108;-74
2023/03/01 01:16:06;;;;;;;22.98;17.67;;;1.70;99.90;;;;;;5094279;28;20511;-74
2023/03/01 01:18:32;;;;;;;23.40;16.77;;;1.70;99.90;;;;;;5093824;28;20055;-74
2023/03/01 01:20:58;;;;;;;22.13;15.55;;;1.70;99.90;;;;;;5094477;28;20044;-74
2023/03/01 01:23:23;;;;;;;24.67;16.03;;;1.70;99.90;;;;;;5094418;28;20044;-74
2023/03/01 01:25:49;;;;;;;21.17;15.87;;;1.60;99.90;;;;;;5094411;28;20513;-74
2023/03/01 01:28:15;;;;;;;22.07;16.10;;;1.70;99.90;;;;;;5093097;28;20051;-74
2023/03/01 01:30:42;;;;;;;20.93;16.07;;;1.60;99.90;;;;;;5094819;28;20052;-74
2023/03/01 01:33:07;;;;;;;23.38;16.92;;;1.50;99.90;;;;;;5094212;28;20036;-74
2023/03/01 01:35:33;;;;;;;24.10;17.00;;;1.60;99.90;;;;;;5094231;28;20051;-74
2023/03/01 01:37:59;;;;;;;22.73;16.50;;;1.60;99.90;;;;;;5093726;28;20054;-74
2023/03/01 01:40:24;;;;;;;21.70;15.87;;;1.70;99.90;;;;;;5094575;28;20105;-74
2023/03/01 01:42:50;;;;;;;22.70;16.37;;;1.60;99.90;;;;;;5094125;28;20067;-74
2023/03/01 01:45:35;;;;;;;23.23;15.87;;;1.60;99.90;;;;;;5092836;28;20048;-74
2023/03/01 01:48:06;;;;;;;22.30;14.98;;;1.50;99.90;;;;;;5093103;28;20170;-74
2023/03/01 01:50:37;;;;;;;19.25;14.00;;;1.50;99.90;;;;;;5092724;28;20089;-74
2023/03/01 01:53:10;;;;;;;18.13;13.95;;;1.50;99.90;;;;;;5092619;28;20098;-77
2023/03/01 01:55:40;;;;;;;18.30;13.07;;;1.60;99.90;;;;;;5094158;28;20117;-74
2023/03/01 01:58:08;;;;;;;35.60;12.43;;;1.50;99.90;;;;;;5093735;28;20074;-75
2023/03/01 02:00:34;;;;;;;21.00;12.45;;;1.60;99.90;;;;;;5093297;28;20039;-74
2023/03/01 02:03:12;;;;;;;42.63;12.97;;;1.60;99.90;;;;;;5093755;28;20048;-74
2023/03/01 02:05:50;;;;;;;39.97;11.80;;;1.50;99.90;;;;;;5094013;28;20074;-74
2023/03/01 02:08:19;;;;;;;45.15;13.13;;;1.40;99.90;;;;;;5094562;28;20047;-75
2023/03/01 02:10:47;;;;;;;42.13;11.48;;;1.30;99.90;;;;;;5093225;28;20476;-75
2023/03/01 02:13:13;;;;;;;35.88;11.75;;;1.30;99.90;;;;;;5093548;28;20056;-76
2023/03/01 02:15:41;;;;;;;78.10;13.30;;;1.40;99.90;;;;;;5093594;28;20044;-76
2023/03/01 02:18:09;;;;;;;19.73;10.73;;;1.20;99.90;;;;;;5093521;28;20059;-76
2023/03/01 02:20:58;;;;;;;68.63;11.10;;;1.20;99.90;;;;;;5093467;28;20177;-75
2023/03/01 02:23:25;;;;;;;17.77;10.07;;;1.10;99.90;;;;;;5094036;28;20052;-75
2023/03/01 02:26:34;;;;;;;20.77;10.75;;;1.10;99.90;;;;;;5093418;28;20044;-75
2023/03/01 02:29:00;;;;;;;23.50;11.65;;;1.00;99.90;;;;;;5031041;28;20199;-75
2023/03/01 02:31:41;;;;;;;17.08;10.27;;;1.10;99.90;;;;;;5030917;28;20050;-75
2023/03/01 02:34:11;;;;;;;14.80;10.57;;;1.10;99.90;;;;;;5060570;28;20091;-77
2023/03/01 02:36:47;;;;;;;22.65;11.82;;;1.00;99.90;;;;;;5093169;28;20051;-76
2023/03/01 02:39:41;;;;;;;15.30;11.50;;;1.10;99.90;;;;;;5092390;28;20063;-76
2023/03/01 02:42:12;;;;;;;16.58;12.07;;;1.00;99.90;;;;;;5093336;28;20507;-75
2023/03/01 02:44:38;;;;;;;21.77;12.20;;;1.00;99.90;;;;;;5093639;28;20047;-76
2023/03/01 02:47:05;;;;;;;28.60;12.77;;;1.10;99.90;;;;;;5093593;28;20043;-75
2023/03/01 02:49:34;;;;;;;19.02;12.07;;;1.10;99.90;;;;;;5094038;28;20052;-76
2023/03/01 02:52:22;;;;;;;27.73;13.35;;;1.00;99.90;;;;;;5093219;28;20036;-75
2023/03/01 02:54:51;;;;;;;28.60;13.55;;;1.00;99.90;;;;;;5093544;28;20426;-75
2023/03/01 02:57:18;;;;;;;50.42;14.15;;;0.90;99.90;;;;;;5093180;28;20088;-75
2023/03/01 02:59:44;;;;;;;33.17;12.95;;;1.00;99.90;;;;;;5093139;28;20518;-75
2023/03/01 03:02:35;;;;;;;17.60;12.20;;;0.90;99.90;;;;;;5093173;28;20083;-75
2023/03/01 03:05:08;;;;;;;18.65;13.35;;;0.90;99.90;;;;;;5094264;28;20048;-75
2023/03/01 03:07:36;;;;;;;16.02;11.65;;;0.90;99.90;;;;;;5093862;28;20044;-75
2023/03/01 03:10:04;;;;;;;17.77;12.50;;;0.90;99.90;;;;;;5093699;28;20131;-75
2023/03/01 03:12:30;;;;;;;16.02;12.38;;;0.90;99.90;;;;;;5096954;28;20036;-76
2023/03/01 03:14:56;;;;;;;17.33;12.57;;;0.90;99.90;;;;;;5096629;28;20554;-76
2023/03/01 03:17:21;;;;;;;18.63;12.57;;;1.00;99.90;;;;;;5097123;28;20111;-76
2023/03/01 03:19:47;;;;;;;18.90;13.03;;;1.00;99.90;;;;;;5096846;28;20380;-75
2023/03/01 03:22:13;;;;;;;36.20;11.50;;;1.00;99.90;;;;;;5097281;28;20048;-76
2023/03/01 03:24:39;;;;;;;15.73;11.03;;;0.90;99.90;;;;;;5096683;28;20044;-76
2023/03/01 03:27:05;;;;;;;14.50;10.87;;;0.90;99.90;;;;;;5096695;28;20044;-76
2023/03/01 03:29:31;;;;;;;12.82;9.95;;;1.00;99.90;;;;;;5096794;28;20139;-76
2023/03/01 03:31:58;;;;;;;17.00;9.30;;;0.90;99.90;;;;;;5095316;28;20052;-76
2023/03/01 03:34:23;;;;;;;16.10;10.02;;;0.90;99.90;;;;;;5096475;28;20120;-76
2023/03/01 03:36:59;;;;;;;14.97;8.50;;;1.00;99.90;;;;;;5096558;28;20079;-76
2023/03/01 03:39:25;;;;;;;;;;;0.90;99.90;;;;;;5096889;28;20048;-76
2023/03/01 03:41:51;;;;;;;16.80;8.05;;;0.90;99.90;;;;;;5096711;28;19926;-76
2023/03/01 03:44:16;;;;;;;43.07;9.27;;;0.90;99.90;;;;;;5096269;28;20047;-78
2023/03/01 03:46:42;;;;;;;16.77;7.30;;;0.90;99.90;;;;;;5096372;28;20044;-75
2023/03/01 03:49:08;;;;;;;30.27;7.50;;;0.80;99.90;;;;;;5096247;28;20036;-75
2023/03/01 03:51:33;;;;;;;34.10;7.37;;;0.80;99.90;;;;;;5096061;28;20051;-76
2023/03/01 03:53:59;;;;;;;32.67;7.30;;;0.80;99.90;;;;;;5094843;28;20044;-75
2023/03/01 03:56:25;;;;;;;12.50;6.87;;;0.80;99.90;;;;;;5094593;28;20055;-75
2023/03/01 03:58:52;;;;;;;57.25;8.10;;;0.90;99.90;;;;;;5096049;28;20052;-75
2023/03/01 04:01:18;;;;;;;118.93;9.20;;;0.70;99.90;;;;;;5096248;28;20126;-76
2023/03/01 04:03:46;;;;;;;131.20;9.40;;;0.60;99.90;;;;;;5096721;28;20119;-72
2023/03/01 04:06:14;;;;;;;52.67;7.70;;;0.30;99.90;;;;;;5096680;28;20043;-76
2023/03/01 04:08:40;;;;;;;31.75;6.57;;;0.20;99.90;;;;;;5095830;28;20097;-75
2023/03/01 04:13:53;;;;;;;28.67;6.47;;;0.10;99.90;;;;;;5096126;28;20423;-75
2023/03/01 04:16:19;;;;;;;54.13;7.60;;;0.00;99.90;;;;;;5095791;28;20040;-74
2023/03/01 04:18:46;;;;;;;37.70;6.73;;;0.00;99.90;;;;;;5096413;28;20369;-75
2023/03/01 04:21:12;;;;;;;44.13;7.25;;;0.00;99.90;;;;;;5095697;28;20039;-75
2023/03/01 04:23:38;;;;;;;34.10;6.40;;;0.00;99.90;;;;;;5094964;28;20468;-75
2023/03/01 04:26:04;;;;;;;12.82;6.10;;;0.10;99.90;;;;;;5095994;28;20274;-75
2023/03/01 04:28:44;;;;;;;11.90;6.57;;;0.10;99.90;;;;;;5095690;28;20063;-75
2023/03/01 04:31:17;;;;;;;9.50;6.55;;;0.00;99.90;;;;;;5095413;28;20048;-75
2023/03/01 04:33:44;;;;;;;9.63;6.53;;;0.00;99.90;;;;;;5094783;28;20044;-75
2023/03/01 04:36:11;;;;;;;9.88;6.78;;;0.00;99.90;;;;;;5095357;28;20111;-75
2023/03/01 04:38:38;;;;;;;9.52;6.88;;;0.00;99.90;;;;;;5095238;28;20051;-75
2023/03/01 04:41:09;;;;;;;9.18;6.22;;;0.00;99.90;;;;;;5095308;28;20102;-75
2023/03/01 04:43:36;;;;;;;8.55;6.15;;;0.00;99.90;;;;;;5095162;28;20565;-75
2023/03/01 04:46:04;;;;;;;9.73;6.60;;;0.10;99.90;;;;;;5095024;28;20055;-75
2023/03/01 04:48:31;;;;;;;10.02;7.25;;;0.10;99.90;;;;;;5094352;28;20055;-75
2023/03/01 04:50:57;;;;;;;11.40;7.90;;;0.30;99.90;;;;;;5093861;28;20051;-75
2023/03/01 04:53:24;;;;;;;11.98;7.75;;;0.30;99.90;;;;;;5095017;28;20551;-75
2023/03/01 04:55:50;;;;;;;13.10;8.27;;;0.20;99.90;;;;;;5093715;28;20051;-75
2023/03/01 04:58:16;;;;;;;15.52;10.65;;;0.20;99.90;;;;;;5094972;28;20086;-75
2023/03/01 05:00:42;;;;;;;19.33;11.60;;;0.10;99.90;;;;;;5095412;28;20058;-75
2023/03/01 05:03:08;;;;;;;36.83;16.03;;;0.00;99.90;;;;;;5093627;28;20048;-75
2023/03/01 05:05:37;;;;;;;35.40;15.77;;;-0.10;99.90;;;;;;5095318;28;20660;-75
2023/03/01 05:08:06;;;;;;;29.10;16.40;;;-0.10;99.90;;;;;;5094741;28;20044;-75
2023/03/01 05:10:34;;;;;;;39.47;17.35;;;-0.20;99.90;;;;;;5094608;28;20036;-75
2023/03/01 05:13:01;;;;;;;50.22;16.73;;;-0.20;99.90;;;;;;5094684;28;20051;-75
2023/03/01 05:15:29;;;;;;;46.17;15.98;;;-0.30;99.90;;;;;;5094565;28;20501;-76
2023/03/01 05:17:58;;;;;;;33.90;16.67;;;-0.30;99.90;;;;;;5095061;28;20055;-75
2023/03/01 05:20:24;;;;;;;43.47;16.80;;;-0.40;99.90;;;;;;5094547;28;20095;-75
2023/03/01 05:22:52;;;;;;;22.70;16.73;;;-0.30;99.90;;;;;;5094520;28;20418;-75
2023/03/01 05:25:18;;;;;;;27.90;15.48;;;-0.30;99.90;;;;;;5094481;28;20087;-75
2023/03/01 05:27:44;;;;;;;27.70;16.45;;;-0.30;99.90;;;;;;5094389;28;20040;-75
2023/03/01 05:30:13;;;;;;;19.08;13.95;;;-0.50;99.90;;;;;;5094765;28;20368;-75
2023/03/01 05:32:42;;;;;;;19.98;14.25;;;-0.50;99.90;;;;;;5094272;28;20052;-75
2023/03/01 05:35:08;;;;;;;19.20;14.18;;;-0.50;99.90;;;;;;5092894;28;20392;-74
2023/03/01 05:37:35;;;;;;;18.20;14.25;;;-0.40;99.90;;;;;;5094198;28;20102;-75
2023/03/01 05:40:01;;;;;;;17.08;12.95;;;-0.40;99.90;;;;;;5077062;28;20059;-74
2023/03/01 05:42:27;;;;;;;17.52;13.32;;;-0.30;99.90;;;;;;5092994;28;20098;-74
2023/03/01 05:44:52;;;;;;;15.30;11.67;;;-0.20;99.90;;;;;;5094367;28;20056;-74
2023/03/01 05:47:18;;;;;;;17.10;12.07;;;-0.30;99.90;;;;;;5094349;28;20043;-74
2023/03/01 05:49:44;;;;;;;16.10;12.43;;;-0.20;99.90;;;;;;5093947;28;20048;-74
2023/03/01 05:52:09;;;;;;;15.57;12.00;;;-0.20;99.90;;;;;;5093934;28;20079;-75
2023/03/01 05:54:35;;;;;;;17.30;12.63;;;-0.30;99.90;;;;;;5094051;28;20545;-75
2023/03/01 05:57:01;;;;;;;14.43;12.00;;;-0.20;99.90;;;;;;5093173;28;20101;-74
2023/03/01 05:59:27;;;;;;;17.27;12.47;;;-0.20;99.90;;;;;;5093924;28;20153;-74
2023/03/01 06:01:53;;;;;;;16.60;12.37;;;-0.10;99.90;;;;;;5093874;28;20056;-74
2023/03/01 06:04:19;;;;;;;18.15;13.55;;;0.00;99.90;;;;;;5094104;28;20446;-74
2023/03/01 06:06:44;;;;;;;19.03;13.63;;;0.00;99.90;;;;;;5092511;28;20044;-74
2023/03/01 06:09:10;;;;;;;18.60;12.77;;;0.00;99.90;;;;;;5093797;28;20050;-74
2023/03/01 06:11:36;;;;;;;19.23;13.43;;;0.00;99.90;;;;;;5093626;28;20036;-75
2023/03/01 06:14:03;;;;;;;20.63;13.98;;;0.00;99.90;;;;;;5093693;28;20130;-74
2023/03/01 06:16:28;;;;;;;18.52;13.80;;;-0.10;99.90;;;;;;5093695;28;20518;-74
2023/03/01 06:18:54;;;;;;;17.37;12.93;;;-0.10;99.90;;;;;;5092556;28;20075;-74
2023/03/01 06:21:20;;;;;;;17.17;12.73;;;-0.10;99.90;;;;;;5092332;28;20149;-74
2023/03/01 06:23:45;;;;;;;18.67;12.33;;;0.00;99.90;;;;;;5092412;28;20048;-75
2023/03/01 06:26:11;;;;;;;36.07;12.30;;;0.00;99.90;;;;;;5093504;28;20044;-74
2023/03/01 06:28:37;;;;;;;26.63;12.23;;;0.00;99.90;;;;;;5093825;28;20040;-75
2023/03/01 06:31:03;;;;;;;17.57;12.27;;;0.00;99.90;;;;;;5093984;28;20056;-74
2023/03/01 06:33:28;;;;;;;17.60;11.67;;;-0.10;99.90;;;;;;5092810;28;20369;-74
2023/03/01 06:35:56;;;;;;;17.07;11.73;;;0.00;99.90;;;;;;5093434;28;20730;-75
2023/03/01 06:38:23;;;;;;;17.98;11.80;;;-0.10;99.90;;;;;;5094213;28;20354;-74
2023/03/01 06:40:56;;;;;;;17.55;11.70;;;0.00;99.90;;;;;;5092392;28;20036;-74
2023/03/01 06:43:23;;;;;;;18.55;12.00;;;-0.10;99.90;;;;;;5094188;28;20145;-74
2023/03/01 06:45:49;;;;;;;15.40;11.90;;;-0.10;99.90;;;;;;5095256;28;20395;-74
2023/03/01 06:48:15;;;;;;;20.43;13.87;;;0.00;99.90;;;;;;5097537;28;20052;-74
2023/03/01 06:50:41;;;;;;;18.70;12.10;;;0.00;99.90;;;;;;5098108;28;20040;-75
2023/03/01 06:53:06;;;;;;;16.50;11.70;;;0.00;99.90;;;;;;5097488;28;20044;-74
2023/03/01 06:55:32;;;;;;;17.07;11.90;;;0.00;99.90;;;;;;5097380;28;20483;-74
2023/03/01 06:57:59;;;;;;;17.52;12.52;;;0.00;99.90;;;;;;5097927;28;20088;-74
2023/03/01 07:00:26;;;;;;;20.40;14.52;;;0.00;99.90;;;;;;5097951;28;20067;-74
2023/03/01 07:02:51;;;;;;;18.67;13.30;;;0.00;99.90;;;;;;5097105;28;20126;-74
2023/03/01 07:05:17;;;;;;;21.40;14.43;;;0.10;99.90;;;;;;5097090;28;20189;-74
2023/03/01 07:07:43;;;;;;;19.37;14.23;;;0.00;99.90;;;;;;5096998;28;20052;-74
2023/03/01 07:10:10;;;;;;;18.58;13.60;;;0.10;99.90;;;;;;5097202;28;20109;-74
2023/03/01 07:12:36;;;;;;;18.90;12.45;;;0.10;99.90;;;;;;5096824;28;20040;-75
2023/03/01 07:15:02;;;;;;;16.77;13.10;;;0.10;99.90;;;;;;5097578;28;20507;-74
2023/03/01 07:17:28;;;;;;;15.63;11.80;;;0.10;99.90;;;;;;5096927;28;20051;-74
2023/03/01 07:19:53;;;;;;;16.50;12.40;;;0.10;99.90;;;;;;5096908;28;20036;-74
2023/03/01 07:22:19;;;;;;;18.93;13.70;;;0.10;99.90;;;;;;5097393;28;20044;-74
2023/03/01 07:24:45;;;;;;;17.77;14.20;;;0.20;99.90;;;;;;5096801;28;20093;-75
2023/03/01 07:27:11;;;;;;;19.63;13.90;;;0.20;99.90;;;;;;5097316;28;20040;-75
2023/03/01 07:29:36;;;;;;;17.20;12.87;;;0.20;99.90;;;;;;5096881;28;20056;-74
2023/03/01 07:32:03;;;;;;;18.27;13.03;;;0.20;99.90;;;;;;5095350;28;20048;-74
2023/03/01 07:34:29;;;;;;;15.05;11.02;;;0.20;99.90;;;;;;5096625;28;20044;-74
2023/03/01 07:36:55;;;;;;;15.73;11.50;;;0.20;99.90;;;;;;5096649;28;20135;-75
2023/03/01 07:39:22;;;;;;;17.40;12.67;;;0.30;99.90;;;;;;5096562;28;20452;-75
2023/03/01 07:41:48;;;;;;;15.52;11.20;;;0.30;99.90;;;;;;5096494;28;20040;-75
2023/03/01 07:44:15;;;;;;;16.63;11.57;;;0.40;99.90;;;;;;5096448;28;20123;-75
2023/03/01 07:46:41;;;;;;;15.77;11.27;;;0.50;99.90;;;;;;5096404;28;20055;-74
2023/03/01 07:49:06;;;;;;;15.23;12.27;;;0.60;99.90;;;;;;5096356;28;20127;-74
2023/03/01 07:51:32;;;;;;;16.73;12.67;;;0.70;99.90;;;;;;5096273;28;20189;-75
2023/03/01 07:53:58;;;;;;;19.87;13.10;;;0.80;99.90;;;;;;5096271;28;20048;-75
2023/03/01 07:56:23;;;;;;;19.13;13.57;;;0.90;99.90;;;;;;5095673;28;20048;-75
2023/03/01 07:58:49;;;;;;;19.47;12.97;;;1.00;99.90;;;;;;5095759;28;20044;-75
2023/03/01 08:01:17;;;;;;;18.27;13.30;;;1.20;99.90;;;;;;5096155;28;20047;-75
2023/03/01 08:03:43;;;;;;;19.30;14.93;;;1.40;99.90;;;;;;5096081;28;20537;-75
2023/03/01 08:06:11;;;;;;;18.80;14.57;;;1.50;99.90;;;;;;5078129;28;20048;-75
2023/03/01 08:08:37;;;;;;;20.67;15.90;;;1.70;99.90;;;;;;5096222;28;20765;-75
2023/03/01 08:11:05;;;;;;;20.45;16.77;;;1.80;99.90;;;;;;5095730;28;20044;-75
2023/03/01 08:13:31;;;;;;;26.58;19.00;;;1.90;99.90;;;;;;5096400;28;20048;-75
2023/03/01 08:16:05;;;;;;;26.48;20.48;;;2.00;99.90;;;;;;5095817;28;20055;-75
2023/03/01 08:18:31;;;;;;;24.92;19.45;;;2.10;99.90;;;;;;5095857;28;20055;-75
2023/03/01 08:21:12;;;;;;;27.93;19.73;;;2.10;99.90;;;;;;5095755;28;20126;-75
2023/03/01 08:23:38;;;;;;;29.00;20.92;;;2.20;99.90;;;;;;5096583;28;20127;-75
2023/03/01 08:26:13;;;;;;;28.75;20.05;;;2.30;99.90;;;;;;5095618;28;20050;-75
2023/03/01 08:28:40;;;;;;;26.40;19.63;;;2.30;99.90;;;;;;5094461;28;20052;-76
2023/03/01 08:31:26;;;;;;;27.15;20.33;;;2.40;99.90;;;;;;5093948;28;20048;-74
2023/03/01 08:33:58;;;;;;;30.25;22.70;;;2.50;99.90;;;;;;5095188;28;20548;-71
2023/03/01 08:36:44;;;;;;;29.55;21.55;;;2.50;99.90;;;;;;5095742;28;20530;-74
2023/03/01 08:39:13;;;;;;;29.05;22.15;;;2.50;99.90;;;;;;5096197;28;20067;-75
2023/03/01 08:41:39;;;;;;;33.47;22.73;;;2.50;99.90;;;;;;5095356;28;20131;-74
2023/03/01 08:44:05;;;;;;;32.13;22.90;;;2.60;99.90;;;;;;5095252;28;20075;-73
2023/03/01 08:46:41;;;;;;;28.65;21.23;;;2.60;99.90;;;;;;5095549;28;20187;-73
2023/03/01 08:49:07;;;;;;;;;;;2.60;99.90;;;;;;5096261;28;20112;-74
2023/03/01 08:51:36;;;;;;;30.50;21.20;;;2.60;99.90;;;;;;5095093;28;20018;-74
2023/03/01 08:54:07;;;;;;;38.60;25.52;;;2.70;99.90;;;;;;5095130;28;20062;-71
2023/03/01 08:56:34;;;;;;;31.92;25.40;;;2.70;99.90;;;;;;5093848;28;20054;-73
2023/03/01 08:59:00;;;;;;;37.45;24.67;;;2.70;99.90;;;;;;5095770;28;20052;-72
2023/03/01 09:01:25;;;;;;;37.05;26.65;;;2.70;99.90;;;;;;5094953;28;20048;-74
2023/03/01 09:03:51;;;;;;;35.50;24.53;;;2.80;99.90;;;;;;5094650;28;20048;-79
2023/03/01 09:06:17;;;;;;;34.80;25.60;;;2.80;99.90;;;;;;5094821;28;20278;-74
2023/03/01 09:08:45;;;;;;;34.83;25.20;;;2.90;99.90;;;;;;5094619;28;20051;-74
2023/03/01 09:11:15;;;;;;;34.45;24.33;;;3.00;99.90;;;;;;5093459;28;20305;-74
2023/03/01 09:13:43;;;;;;;33.20;24.92;;;3.00;99.90;;;;;;5095308;28;20101;-74
2023/03/01 09:16:12;;;;;;;34.38;25.30;;;3.10;99.90;;;;;;5094692;28;20058;-73
2023/03/01 09:18:38;;;;;;;35.80;25.10;;;3.10;99.90;;;;;;5093414;28;20052;-75
2023/03/01 09:21:08;;;;;;;35.75;25.77;;;3.20;99.90;;;;;;5094608;28;20050;-76
2023/03/01 09:23:45;;;;;;;34.33;25.40;;;3.20;99.90;;;;;;5094538;28;20048;-73
2023/03/01 09:26:19;;;;;;;32.88;24.42;;;3.30;99.90;;;;;;5095283;28;20066;-74
2023/03/01 09:28:46;;;;;;;32.17;24.63;;;3.40;99.90;;;;;;5094149;28;20066;-74
2023/03/01 09:31:13;;;;;;;33.47;24.63;;;3.50;99.90;;;;;;5094274;28;20043;-74
2023/03/01 09:33:39;;;;;;;32.15;24.75;;;3.50;99.90;;;;;;5094347;28;20104;-74
2023/03/01 09:36:15;;;;;;;30.80;23.60;;;3.50;99.90;;;;;;5094434;28;20480;-74
2023/03/01 09:38:41;;;;;;;31.85;21.17;;;3.60;99.90;;;;;;5094265;28;20051;-73
2023/03/01 09:41:17;;;;;;;27.37;21.23;;;3.60;99.90;;;;;;5094169;28;20048;-73
2023/03/01 09:43:58;;;;;;;30.20;22.73;;;3.70;99.90;;;;;;5094244;28;20131;-74
2023/03/01 09:46:26;;;;;;;25.17;20.02;;;3.70;99.90;;;;;;5094203;28;20044;-73
2023/03/01 09:48:59;;;;;;;24.20;18.73;;;3.70;99.90;;;;;;5094073;28;20040;-73
2023/03/01 09:51:31;;;;;;;19.92;14.93;;;3.80;99.90;;;;;;5094292;28;20040;-73
2023/03/01 09:53:58;;;;;;;20.05;15.38;;;3.90;99.90;;;;;;5093901;28;20048;-76
2023/03/01 09:56:44;;;;;;;20.30;15.63;;;3.90;99.90;;;;;;5094193;28;20044;-73
2023/03/01 09:59:24;;;;;;;20.13;16.42;;;4.00;99.90;;;;;;5093978;28;20044;-72
2023/03/01 10:02:07;;;;;;;18.75;14.90;;;4.10;99.90;;;;;;5092779;28;20131;-72
2023/03/01 10:04:51;;;;;;;20.58;14.05;;;4.20;99.90;;;;;;5094414;28;20052;-73
2023/03/01 10:07:55;;;;;;;19.15;13.23;;;4.20;99.90;;;;;;5094275;28;20044;-73
2023/03/01 10:10:31;;;;;;;18.77;13.10;;;4.30;99.90;;;;;;5093696;28;20040;-73
2023/03/01 10:12:59;;;;;;;18.42;12.50;;;4.40;99.90;;;;;;5093959;28;20050;-72
2023/03/01 10:15:41;;;;;;;20.38;13.73;;;4.50;99.90;;;;;;5092433;28;20074;-74
2023/03/01 10:18:14;;;;;;;17.85;13.43;;;4.60;99.90;;;;;;5093333;28;20549;-75
2023/03/01 10:20:51;;;;;;;16.85;12.70;;;4.70;99.90;;;;;;5092015;28;20079;-75
2023/03/01 10:23:17;;;;;;;19.33;11.60;;;4.80;99.90;;;;;;5092350;28;20131;-73
2023/03/01 10:25:55;;;;;;;14.10;9.60;;;4.70;99.90;;;;;;5092584;28;20131;-73
2023/03/01 10:28:30;;;;;;;13.38;9.90;;;4.90;99.90;;;;;;5094043;28;20052;-72
2023/03/01 10:30:58;;;;;;;16.30;10.18;;;4.90;99.90;;;;;;5093466;28;20086;-73
2023/03/01 10:33:29;;;;;;;15.13;10.05;;;5.00;99.90;;;;;;5093948;28;20050;-74
2023/03/01 10:35:55;;;;;;;16.30;11.48;;;5.00;99.90;;;;;;5093429;28;20043;-73
2023/03/01 10:38:21;;;;;;;15.13;10.98;;;5.10;99.90;;;;;;5092213;28;20047;-73
2023/03/01 10:40:53;;;;;;;15.17;11.17;;;5.20;99.90;;;;;;5093450;28;20048;-73
2023/03/01 10:43:19;;;;;;;15.45;11.10;;;5.20;99.90;;;;;;5093345;28;20051;-74
2023/03/01 10:45:45;;;;;;;18.73;11.85;;;5.30;99.90;;;;;;5093378;28;20051;-72
2023/03/01 10:48:28;;;;;;;14.27;11.23;;;5.40;99.90;;;;;;5093409;28;20044;-71
2023/03/01 10:50:59;;;;;;;14.90;11.23;;;5.40;99.90;;;;;;5093831;28;20301;-73
2023/03/01 10:53:33;;;;;;;12.60;10.65;;;5.40;99.90;;;;;;5093259;28;20094;-73
2023/03/01 10:56:17;;;;;;;17.15;11.27;;;5.40;99.90;;;;;;5075780;28;20048;-71
2023/03/01 10:59:21;;;;;;;15.35;9.98;;;5.50;99.90;;;;;;5075733;28;20048;-74
2023/03/01 11:02:21;;;;;;;15.18;11.55;;;5.50;99.90;;;;;;5077185;28;20052;-74
2023/03/01 11:05:12;;;;;;;15.20;11.27;;;5.50;99.90;;;;;;5091419;28;20048;-71
2023/03/01 11:08:10;;;;;;;17.58;12.23;;;5.60;99.90;;;;;;5093377;28;20125;-70
2023/03/01 11:10:36;;;;;;;16.60;11.68;;;5.70;99.90;;;;;;5075933;28;20068;-72
2023/03/01 11:13:20;;;;;;;16.73;12.27;;;5.70;99.90;;;;;;5093685;28;20051;-73
2023/03/01 11:16:01;;;;;;;18.45;11.40;;;5.80;99.90;;;;;;5092402;28;20461;-73
2023/03/01 11:18:30;;;;;;;16.65;11.50;;;5.80;99.90;;;;;;5093034;28;20044;-75
2023/03/01 11:20:58;;;;;;;19.08;11.98;;;5.80;99.90;;;;;;5093795;28;20051;-74
2023/03/01 11:23:25;;;;;;;15.68;11.32;;;5.90;99.90;;;;;;5093755;28;20400;-70
2023/03/01 11:25:58;;;;;;;16.75;11.88;;;5.90;99.90;;;;;;5092041;28;20135;-74
2023/03/01 11:28:27;;;;;;;14.25;11.60;;;5.90;99.90;;;;;;5093030;28;20487;-73
2023/03/01 11:31:14;;;;;;;16.55;12.27;;;5.90;99.90;;;;;;5093193;28;20127;-71
2023/03/01 11:33:53;;;;;;;16.77;12.38;;;6.00;99.90;;;;;;5095759;28;20373;-75
2023/03/01 11:36:38;;;;;;;15.55;12.65;;;6.10;99.90;;;;;;5095118;28;20496;-75
2023/03/01 11:39:32;;;;;;;16.63;12.18;;;6.20;99.90;;;;;;5097149;28;20054;-74
2023/03/01 11:42:15;;;;;;;14.90;11.82;;;6.20;99.90;;;;;;5096578;28;20051;-74
2023/03/01 11:44:44;;;;;;;14.63;11.02;;;6.30;99.90;;;;;;5096987;28;20116;-74
2023/03/01 11:47:22;;;;;;;17.65;11.52;;;6.40;99.90;;;;;;5096369;28;20495;-80
2023/03/01 11:50:15;;;;;;;16.75;11.65;;;6.40;99.90;;;;;;5096917;28;20062;-74
2023/03/01 11:53:00;;;;;;;15.65;11.05;;;6.40;99.90;;;;;;5096208;28;20044;-74
2023/03/01 11:55:45;;;;;;;16.27;12.35;;;6.50;99.90;;;;;;5097060;28;20376;-74
2023/03/01 11:58:41;;;;;;;16.85;12.05;;;6.40;99.90;;;;;;5096329;28;20556;-71
2023/03/01 12:01:18;;;;;;;20.90;12.25;;;6.40;99.90;;;;;;5074081;28;20056;-74
2023/03/01 12:04:09;;;;;;;15.30;11.93;;;6.50;99.90;;;;;;5095977;28;20051;-74
2023/03/01 12:06:57;;;;;;;18.40;12.85;;;6.50;99.90;;;;;;5096315;28;20044;-70
2023/03/01 12:09:57;;;;;;;17.05;11.95;;;6.60;99.90;;;;;;5096447;28;20051;-74
2023/03/01 12:12:44;;;;;;;15.68;11.80;;;6.60;99.90;;;;;;5095840;28;20048;-74
2023/03/01 12:15:24;;;;;;;16.90;12.23;;;6.60;99.90;;;;;;5095825;28;20052;-74
2023/03/01 12:18:18;;;;;;;19.65;12.50;;;6.60;99.90;;;;;;5094586;28;20054;-74
2023/03/01 12:21:24;;;;;;;15.85;11.38;;;6.60;99.90;;;;;;5096334;28;20123;-74
2023/03/01 12:24:14;;;;;;;15.30;12.40;;;6.60;99.90;;;;;;5096019;28;20043;-74
2023/03/01 12:27:20;;;;;;;16.15;11.68;;;6.60;99.90;;;;;;5094977;28;20052;-74
2023/03/01 12:30:04;;;;;;;18.02;12.60;;;6.60;99.90;;;;;;5080044;28;20103;-74
2023/03/01 12:32:45;;;;;;;17.15;12.15;;;6.70;99.90;;;;;;5096286;28;20083;-74
2023/03/01 12:35:31;;;;;;;16.88;12.88;;;6.70;99.90;;;;;;5096017;28;20097;-74
2023/03/01 12:38:15;;;;;;;21.75;13.07;;;6.70;99.90;;;;;;5094172;28;20080;-74
2023/03/01 12:41:04;;;;;;;19.83;12.70;;;6.70;99.90;;;;;;5095364;28;20545;-74
2023/03/01 12:43:54;;;;;;;25.98;13.55;;;6.70;99.90;;;;;;5095073;28;20460;-74
2023/03/01 12:46:58;;;;;;;17.10;12.73;;;6.70;99.90;;;;;;5095536;28;20161;-74
2023/03/01 12:49:30;;;;;;;17.38;13.05;;;6.70;99.90;;;;;;5095314;28;20131;-71
2023/03/01 12:52:10;;;;;;;16.77;13.35;;;6.70;99.90;;;;;;5095812;28;20051;-71
2023/03/01 12:54:37;;;;;;;19.52;13.50;;;6.80;99.90;;;;;;5095544;28;20048;-77
2023/03/01 12:57:12;;;;;;;16.80;13.07;;;6.90;99.90;;;;;;5093891;28;20056;-74
2023/03/01 12:59:42;;;;;;;16.38;11.80;;;7.00;99.90;;;;;;5094367;28;20521;-76
2023/03/01 13:02:25;;;;;;;15.75;12.30;;;7.10;99.90;;;;;;5094692;28;20043;-78